Time;durP1;ratioP1;P1;durP2;ratioP2;P2;SDS_P1;SDS_P2;PMS_P1;PMS_P2;Temp;Humidity;BMP_temperature;BMP_pressure;BME280_temperature;BME280_humidity;BME280_pressure;Samples;Min_cycle;Max_cycle;Signal;HPM_P1;HPM_P2
2023/02/18 00:01:41;;;;;;;;;;;;;;;16.20;41.77;101357.59;5075766;28;1126;-53
2023/02/18 00:04:06;;;;;;;;;;;;;;;17.85;38.44;101363.63;5075967;28;999;-47
2023/02/18 00:06:32;;;;;;;;;;;;;;;17.30;39.29;101365.78;5075525;28;1934;-53
2023/02/18 00:09:00;;;;;;;;;;;;;;;16.46;41.29;101360.59;5076320;28;1975;-49
2023/02/18 00:11:26;;;;;;;;;;;;;;;17.74;38.60;101357.22;5075839;28;1070;-52
2023/02/18 00:13:55;;;;;;;;;;;;;;;16.58;40.98;101346.75;5075587;28;1058;-48
2023/02/18 00:16:21;;;;;;;;;;;;;;;16.17;41.86;101349.88;5076164;28;1162;-48
2023/02/18 00:18:46;;;;;;;;;;;;;;;16.91;40.44;101342.97;5075649;28;1090;-49
2023/02/18 00:21:12;;;;;;;;;;;;;;;16.54;40.98;101342.84;5075692;28;1113;-49
2023/02/18 00:23:37;;;;;;;;;;;;;;;16.15;41.68;101348.47;5075332;28;991;-52
2023/02/18 00:26:07;;;;;;;;;;;;;;;17.66;38.88;101336.56;5075524;28;1138;-51
2023/02/18 00:28:33;;;;;;;;;;;;;;;16.38;41.39;101331.72;5073185;28;1360;-52
2023/02/18 00:30:58;;;;;;;;;;;;;;;16.76;40.69;101318.91;5079086;28;1980;-54
2023/02/18 00:33:24;;;;;;;;;;;;;;;16.99;40.24;101327.91;5079923;28;1030;-54
2023/02/18 00:35:50;;;;;;;;;;;;;;;16.26;41.72;101314.56;5080173;28;2161;-50
2023/02/18 00:38:16;;;;;;;;;;;;;;;18.32;37.29;101310.41;5079113;28;1190;-51
2023/02/18 00:40:42;;;;;;;;;;;;;;;16.82;40.38;101310.72;5078059;28;1008;-51
2023/02/18 00:43:07;;;;;;;;;;;;;;;16.32;41.34;101305.28;5111424;28;1218;-49
2023/02/18 00:45:33;;;;;;;;;;;;;;;16.54;41.17;101296.19;5079007;28;1007;-52
2023/02/18 00:47:58;;;;;;;;;;;;;;;16.72;40.56;101295.78;5079591;28;1121;-49
2023/02/18 00:50:24;;;;;;;;;;;;;;;16.14;41.67;101300.16;5079600;28;1910;-53
2023/02/18 00:52:49;;;;;;;;;;;;;;;15.87;42.21;101295.47;5079296;28;1083;-50
2023/02/18 00:55:15;;;;;;;;;;;;;;;17.57;39.16;101291.41;5076859;28;2062;-50
2023/02/18 00:57:40;;;;;;;;;;;;;;;16.32;41.62;101280.59;5079162;28;1015;-47
2023/02/18 01:00:06;;;;;;;;;;;;;;;16.01;41.92;101284.94;5077918;28;1102;-49
2023/02/18 01:02:31;;;;;;;;;;;;;;;16.87;40.40;101275.88;5079077;28;1123;-51
2023/02/18 01:04:57;;;;;;;;;;;;;;;16.14;41.84;101278.22;5082017;28;1899;-51
2023/02/18 01:07:22;;;;;;;;;;;;;;;18.09;37.91;101282.28;5082340;28;1082;-51
2023/02/18 01:09:48;;;;;;;;;;;;;;;17.05;39.98;101271.88;5078759;28;1974;-52
2023/02/18 01:12:13;;;;;;;;;;;;;;;16.45;41.21;101260.13;5077546;28;1095;-49
2023/02/18 01:14:38;;;;;;;;;;;;;;;17.39;39.36;101266.06;5078850;28;991;-53
2023/02/18 01:17:04;;;;;;;;;;;;;;;16.28;41.37;101268.47;5077404;28;1432;-49
2023/02/18 01:19:30;;;;;;;;;;;;;;;16.08;41.88;101269.09;5078400;28;1050;-52
2023/02/18 01:21:58;;;;;;;;;;;;;;;17.30;39.30;101264.88;5078834;28;1083;-51
2023/02/18 01:24:24;;;;;;;;;;;;;;;16.26;41.72;101256.94;5077924;28;1023;-52
2023/02/18 01:26:49;;;;;;;;;;;;;;;18.22;37.89;101255.34;5078490;28;1035;-52
2023/02/18 01:29:14;;;;;;;;;;;;;;;17.22;39.54;101259.91;5077289;28;1910;-53
2023/02/18 01:31:40;;;;;;;;;;;;;;;16.50;41.15;101256.63;5077821;28;1046;-49
2023/02/18 01:34:05;;;;;;;;;;;;;;;16.24;41.46;101256.38;5078690;28;1087;-53
2023/02/18 01:36:31;;;;;;;;;;;;;;;17.55;39.03;101258.69;5076771;28;2652;-54
2023/02/18 01:38:56;;;;;;;;;;;;;;;16.61;41.02;101255.59;5078583;28;1046;-53
2023/02/18 01:41:22;;;;;;;;;;;;;;;17.19;39.75;101250.25;5077597;28;991;-50
2023/02/18 01:43:47;;;;;;;;;;;;;;;17.58;38.74;101257.31;5076809;28;1176;-48
2023/02/18 01:46:17;;;;;;;;;;;;;;;16.63;41.13;101258.91;5093081;28;2198;-46
2023/02/18 01:48:50;;;;;;;;;;;;;;;18.13;37.95;101261.38;5077188;28;1119;-50
2023/02/18 01:51:26;;;;;;;;;;;;;;;16.97;39.99;101255.91;5078081;28;1107;-50
2023/02/18 01:53:53;;;;;;;;;;;;;;;16.40;41.37;101249.94;5078044;28;1034;-52
2023/02/18 01:56:21;;;;;;;;;;;;;;;16.19;41.74;101253.59;5077447;28;1034;-52
2023/02/18 01:58:47;;;;;;;;;;;;;;;17.00;40.20;101251.78;5078594;28;1330;-55
2023/02/18 02:01:13;;;;;;;;;;;;;;;16.28;41.45;101245.72;5059710;28;1319;-53
2023/02/18 02:03:40;;;;;;;;;;;;;;;18.29;37.85;101228.38;5110787;28;1133;-54
2023/02/18 02:06:09;;;;;;;;;;;;;;;16.92;40.11;101229.22;5077355;28;2255;-55
2023/02/18 02:08:34;;;;;;;;;;;;;;;16.37;41.27;101217.53;5076454;28;981;-52
2023/02/18 02:11:03;;;;;;;;;;;;;;;16.29;41.67;101212.50;5077718;28;1909;-55
2023/02/18 02:13:50;;;;;;;;;;;;;;;17.16;39.86;101225.25;5078090;28;1030;-53
2023/02/18 02:16:18;;;;;;;;;;;;;;;16.19;41.70;101221.47;5059874;28;1120;-52
2023/02/18 02:18:44;;;;;;;;;;;;;;;17.99;38.09;101223.66;5110483;28;1177;-53
2023/02/18 02:21:18;;;;;;;;;;;;;;;16.65;40.79;101232.03;5077410;28;933;-49
2023/02/18 02:23:58;;;;;;;;;;;;;;;16.20;41.87;101234.13;5076350;28;1141;-54
2023/02/18 02:26:42;;;;;;;;;;;;;;;17.80;38.67;101235.13;5076278;28;1130;-52
2023/02/18 02:29:25;;;;;;;;;;;;;;;16.58;40.97;101231.44;5077599;28;1980;-50
2023/02/18 02:31:51;;;;;;;;;;;;;;;16.70;40.97;101226.56;5076650;28;1229;-52
2023/02/18 02:34:31;;;;;;;;;;;;;;;16.79;40.66;101221.44;5077480;28;1099;-52
2023/02/18 02:37:17;;;;;;;;;;;;;;;16.17;41.63;101222.81;5076943;28;2651;-52
2023/02/18 02:39:46;;;;;;;;;;;;;;;16.04;41.83;101213.91;5076427;28;1283;-52
2023/02/18 02:42:11;;;;;;;;;;;;;;;17.27;39.72;101221.44;5075511;28;2099;-52
2023/02/18 02:44:56;;;;;;;;;;;;;;;16.37;41.65;101224.94;5075740;28;1109;-53
2023/02/18 02:47:26;;;;;;;;;;;;;;;16.07;42.30;101223.56;5092373;28;1098;-51
2023/02/18 02:50:27;;;;;;;;;;;;;;;16.75;40.68;101220.28;5059197;28;1905;-51
2023/02/18 02:52:55;;;;;;;;;;;;;;;17.15;40.14;101212.59;5053214;28;1324;-49
2023/02/18 02:55:21;;;;;;;;;;;;;;;18.09;37.94;101213.50;5045841;28;1100;-50
2023/02/18 02:57:50;;;;;;;;;;;;;;;16.63;40.97;101209.47;5075174;28;1249;-49
2023/02/18 03:00:28;;;;;;;;;;;;;;;17.76;38.65;101210.09;5075327;28;1110;-54
2023/02/18 03:02:57;;;;;;;;;;;;;;;17.07;40.01;101208.44;5076791;28;1007;-54
2023/02/18 03:05:22;;;;;;;;;;;;;;;16.47;41.17;101199.50;5075489;28;2423;-54
2023/02/18 03:08:00;;;;;;;;;;;;;;;16.19;41.83;101204.19;5075042;28;1099;-54
2023/02/18 03:10:35;;;;;;;;;;;;;;;17.38;39.32;101198.41;5087055;28;1901;-55
2023/02/18 03:13:08;;;;;;;;;;;;;;;16.47;41.54;101194.00;5081813;28;1114;-52
2023/02/18 03:15:37;;;;;;;;;;;;;;;18.61;37.08;101185.97;5074628;28;1235;-50
2023/02/18 03:18:09;;;;;;;;;;;;;;;17.19;39.68;101183.47;5092233;28;1140;-52
2023/02/18 03:20:55;;;;;;;;;;;;;;;16.63;40.85;101184.78;5074934;28;1169;-50
2023/02/18 03:23:22;;;;;;;;;;;;;;;16.24;41.68;101187.75;5091395;28;1204;-52
2023/02/18 03:25:47;;;;;;;;;;;;;;;17.37;39.35;101184.94;5058598;28;1389;-51
2023/02/18 03:28:14;;;;;;;;;;;;;;;16.49;41.32;101184.41;5091768;28;1103;-52
2023/02/18 03:30:41;;;;;;;;;;;;;;;17.14;40.05;101188.94;5075197;28;1909;-52
2023/02/18 03:33:06;;;;;;;;;;;;;;;17.06;40.11;101184.81;5091235;28;1047;-53
2023/02/18 03:35:32;;;;;;;;;;;;;;;16.40;41.36;101186.81;5091598;28;2560;-51
2023/02/18 03:38:01;;;;;;;;;;;;;;;16.53;41.56;101182.78;5058534;28;1156;-49
2023/02/18 03:40:28;;;;;;;;;;;;;;;17.12;39.93;101172.72;5076331;28;1075;-50
2023/02/18 03:42:55;;;;;;;;;;;;;;;16.29;41.62;101187.81;5057956;28;1289;-50
2023/02/18 03:45:20;;;;;;;;;;;;;;;16.21;41.94;101166.34;5074443;28;1317;-50
2023/02/18 03:47:46;;;;;;;;;;;;;;;16.72;40.66;101166.72;5108401;28;1099;-51
2023/02/18 03:50:14;;;;;;;;;;;;;;;16.17;41.89;101163.31;5074589;28;1967;-48
2023/02/18 03:52:39;;;;;;;;;;;;;;;16.02;42.21;101174.13;5108291;28;1181;-50
2023/02/18 03:55:05;;;;;;;;;;;;;;;17.00;39.99;101164.72;5076154;28;1161;-50
2023/02/18 03:57:30;;;;;;;;;;;;;;;16.11;41.81;101163.53;5074371;28;1110;-51
2023/02/18 03:59:56;;;;;;;;;;;;;;;16.56;41.22;101173.19;5076233;28;1095;-51
2023/02/18 04:02:21;;;;;;;;;;;;;;;16.65;40.86;101171.63;5075834;28;1015;-51
2023/02/18 04:04:46;;;;;;;;;;;;;;;16.17;41.83;101166.06;5075575;28;2356;-53
2023/02/18 04:07:12;;;;;;;;;;;;;;;17.98;38.12;101170.56;5075966;28;1178;-53
2023/02/18 04:09:37;;;;;;;;;;;;;;;16.60;40.92;101182.56;5075854;28;1972;-51
2023/02/18 04:12:03;;;;;;;;;;;;;;;17.28;39.71;101179.97;5076068;28;1099;-47
2023/02/18 04:14:28;;;;;;;;;;;;;;;17.34;39.16;101178.06;5075423;28;1427;-49
2023/02/18 04:16:54;;;;;;;;;;;;;;;16.49;41.11;101172.59;5076255;28;1197;-52
2023/02/18 04:19:19;;;;;;;;;;;;;;;18.18;37.82;101166.16;5075777;28;1039;-54
2023/02/18 04:21:44;;;;;;;;;;;;;;;16.73;40.46;101162.03;5075673;28;883;-45
2023/02/18 04:24:10;;;;;;;;;;;;;;;16.46;40.99;101148.44;5075573;28;1111;-46
2023/02/18 04:26:35;;;;;;;;;;;;;;;17.57;38.85;101153.94;5075886;28;1035;-51
2023/02/18 04:29:01;;;;;;;;;;;;;;;16.55;40.82;101142.19;5075475;28;2372;-49
2023/02/18 04:31:26;;;;;;;;;;;;;;;16.22;41.54;101137.81;5075671;28;1031;-52
2023/02/18 04:33:51;;;;;;;;;;;;;;;16.54;41.27;101142.44;5075341;28;820;-53
2023/02/18 04:36:17;;;;;;;;;;;;;;;16.78;40.44;101145.59;5075042;28;2550;-50
2023/02/18 04:38:42;;;;;;;;;;;;;;;16.71;40.91;101140.34;5075571;28;1082;-48
2023/02/18 04:41:08;;;;;;;;;;;;;;;18.32;37.20;101130.66;5075588;28;1043;-54
2023/02/18 04:43:33;;;;;;;;;;;;;;;16.73;40.69;101126.34;5075239;28;1215;-54
2023/02/18 04:45:58;;;;;;;;;;;;;;;16.50;41.38;101138.56;5075522;28;975;-54
2023/02/18 04:48:24;;;;;;;;;;;;;;;17.04;39.76;101132.03;5075625;28;1202;-50
2023/02/18 04:50:49;;;;;;;;;;;;;;;16.43;41.48;101131.38;5074868;28;1905;-53
2023/02/18 04:53:15;;;;;;;;;;;;;;;16.65;40.92;101124.94;5069625;28;1216;-51
2023/02/18 04:55:40;;;;;;;;;;;;;;;16.80;40.60;101113.19;5073956;28;970;-55
2023/02/18 04:58:05;;;;;;;;;;;;;;;16.49;41.31;101120.44;5079834;28;1189;-54
2023/02/18 05:00:31;;;;;;;;;;;;;;;18.20;37.39;101119.91;5075222;28;1066;-55
2023/02/18 05:02:56;;;;;;;;;;;;;;;16.79;40.43;101121.72;5075122;28;1142;-54
2023/02/18 05:05:22;;;;;;;;;;;;;;;16.24;41.54;101113.69;5075360;28;1832;-53
2023/02/18 05:07:47;;;;;;;;;;;;;;;17.43;39.29;101118.72;5075006;28;1375;-53
2023/02/18 05:10:16;;;;;;;;;;;;;;;16.71;40.68;101112.88;5075232;28;1890;-55
2023/02/18 05:12:41;;;;;;;;;;;;;;;16.16;41.89;101114.16;5075260;28;1094;-50
2023/02/18 05:15:07;;;;;;;;;;;;;;;17.65;38.69;101117.66;5075231;28;1015;-52
2023/02/18 05:17:32;;;;;;;;;;;;;;;16.43;41.24;101112.16;5078806;28;1023;-53
2023/02/18 05:19:58;;;;;;;;;;;;;;;16.16;41.80;101114.16;5078774;28;1138;-52
2023/02/18 05:22:23;;;;;;;;;;;;;;;17.56;38.99;101111.88;5077831;28;1110;-54
2023/02/18 05:24:49;;;;;;;;;;;;;;;16.49;41.05;101118.50;5078346;28;1023;-54
2023/02/18 05:27:14;;;;;;;;;;;;;;;16.18;41.88;101120.22;5078525;28;1110;-54
2023/02/18 05:29:39;;;;;;;;;;;;;;;17.24;39.66;101121.13;5078199;28;1897;-51
2023/02/18 05:32:05;;;;;;;;;;;;;;;16.39;41.12;101119.28;5078311;28;1058;-51
2023/02/18 05:34:30;;;;;;;;;;;;;;;15.98;42.14;101121.72;5078164;28;898;-52
2023/02/18 05:36:56;;;;;;;;;;;;;;;17.17;40.15;101126.03;5078332;28;2668;-51
2023/02/18 05:39:21;;;;;;;;;;;;;;;16.40;41.24;101122.88;5078560;28;1047;-49
2023/02/18 05:41:46;;;;;;;;;;;;;;;17.78;38.48;101127.28;5078087;28;1050;-48
2023/02/18 05:44:30;;;;;;;;;;;;;;;17.92;38.05;101122.94;5077187;28;1450;-51
2023/02/18 05:46:57;;;;;;;;;;;;;;;16.61;40.81;101123.81;5078235;28;1007;-49
2023/02/18 05:49:22;;;;;;;;;;;;;;;16.55;41.06;101124.88;5078465;28;1973;-50
2023/02/18 05:51:48;;;;;;;;;;;;;;;17.03;40.10;101125.72;5077697;28;1039;-52
2023/02/18 05:54:13;;;;;;;;;;;;;;;16.69;41.05;101123.31;5078193;28;1011;-50
2023/02/18 05:56:39;;;;;;;;;;;;;;;18.63;37.04;101129.50;5077844;28;1113;-53
2023/02/18 05:59:04;;;;;;;;;;;;;;;17.11;39.93;101121.63;5077686;28;885;-43
2023/02/18 06:01:29;;;;;;;;;;;;;;;16.57;41.16;101119.94;5074789;28;1142;-44
2023/02/18 06:03:55;;;;;;;;;;;;;;;16.29;41.56;101115.66;5057881;28;1234;-47
2023/02/18 06:06:20;;;;;;;;;;;;;;;17.31;39.28;101120.88;5072438;28;1788;-44
2023/02/18 06:08:46;;;;;;;;;;;;;;;16.43;41.38;101120.41;5077735;28;1214;-44
2023/02/18 06:11:11;;;;;;;;;;;;;;;16.12;41.67;101115.78;5077211;28;1918;-47
2023/02/18 06:13:37;;;;;;;;;;;;;;;17.48;39.46;101120.66;5077483;28;1105;-45
2023/02/18 06:16:02;;;;;;;;;;;;;;;16.96;40.30;101111.41;5076440;28;1051;-45
2023/02/18 06:18:28;;;;;;;;;;;;;;;16.95;40.14;101114.41;5078060;28;1110;-43
2023/02/18 06:20:53;;;;;;;;;;;;;;;16.61;40.81;101112.84;5077360;28;1210;-44
2023/02/18 06:23:18;;;;;;;;;;;;;;;16.34;41.46;101121.16;5077413;28;854;-45
2023/02/18 06:25:44;;;;;;;;;;;;;;;16.14;41.86;101113.59;5077235;28;1194;-44
2023/02/18 06:28:09;;;;;;;;;;;;;;;15.98;42.11;101101.69;5077849;28;1102;-43
2023/02/18 06:30:35;;;;;;;;;;;;;;;15.80;42.60;101100.97;5077489;28;1929;-44
2023/02/18 06:33:03;;;;;;;;;;;;;;;15.68;42.76;101101.13;5077744;28;1006;-42
2023/02/18 06:35:28;;;;;;;;;;;;;;;15.56;42.91;101100.47;5074755;28;2468;-43
2023/02/18 06:37:54;;;;;;;;;;;;;;;15.46;43.39;101092.09;5066635;28;1055;-43
2023/02/18 06:40:19;;;;;;;;;;;;;;;15.37;43.56;101095.31;5077202;28;1115;-42
2023/02/18 06:42:45;;;;;;;;;;;;;;;15.26;43.71;101093.53;5076813;28;1215;-42
2023/02/18 06:45:10;;;;;;;;;;;;;;;16.21;41.54;101092.25;5076744;28;1074;-42
2023/02/18 06:47:36;;;;;;;;;;;;;;;17.28;39.24;101100.25;5077096;28;1016;-44
2023/02/18 06:50:01;;;;;;;;;;;;;;;16.24;41.32;101094.47;5076587;28;1910;-44
2023/02/18 06:52:29;;;;;;;;;;;;;;;15.76;42.34;101091.59;5076803;28;1174;-41
2023/02/18 06:54:54;;;;;;;;;;;;;;;15.56;43.03;101103.19;5077156;28;1019;-46
2023/02/18 06:57:20;;;;;;;;;;;;;;;15.39;43.44;101101.38;5076482;28;1022;-45
2023/02/18 06:59:45;;;;;;;;;;;;;;;15.57;43.12;101099.34;5077029;28;1101;-42
2023/02/18 07:02:14;;;;;;;;;;;;;;;17.18;39.32;101099.38;5076869;28;1094;-43
2023/02/18 07:04:39;;;;;;;;;;;;;;;16.29;41.25;101105.50;5076917;28;2419;-43
2023/02/18 07:07:04;;;;;;;;;;;;;;;15.78;42.41;101105.88;5076464;28;1026;-41
2023/02/18 07:09:30;;;;;;;;;;;;;;;15.55;42.87;101102.34;5076618;28;1965;-42
2023/02/18 07:11:55;;;;;;;;;;;;;;;15.35;43.47;101099.41;5076435;28;1066;-43
2023/02/18 07:14:23;;;;;;;;;;;;;;;15.23;43.71;101105.88;5076257;28;1046;-45
2023/02/18 07:16:48;;;;;;;;;;;;;;;15.84;42.49;101104.03;5075147;28;1095;-42
2023/02/18 07:19:14;;;;;;;;;;;;;;;17.10;39.47;101103.50;5076475;28;1014;-46
2023/02/18 07:21:39;;;;;;;;;;;;;;;16.05;41.48;101103.13;5075996;28;1090;-44
2023/02/18 07:24:05;;;;;;;;;;;;;;;15.66;42.67;101091.50;5076390;28;1175;-43
2023/02/18 07:26:30;;;;;;;;;;;;;;;15.44;43.02;101094.28;5076518;28;980;-43
2023/02/18 07:28:56;;;;;;;;;;;;;;;16.30;41.21;101095.34;5077047;28;1150;-44
2023/02/18 07:31:21;;;;;;;;;;;;;;;17.12;39.15;101092.22;5076190;28;1975;-46
2023/02/18 07:33:46;;;;;;;;;;;;;;;16.08;41.63;101093.53;5075649;28;1093;-43
2023/02/18 07:36:12;;;;;;;;;;;;;;;15.74;42.33;101083.63;5076342;28;2603;-44
2023/02/18 07:38:37;;;;;;;;;;;;;;;15.52;42.70;101080.13;5075750;28;1085;-47
2023/02/18 07:41:03;;;;;;;;;;;;;;;15.33;43.26;101082.38;5075905;28;999;-43
2023/02/18 07:43:28;;;;;;;;;;;;;;;16.02;41.73;101089.94;5075594;28;1172;-44
2023/02/18 07:45:54;;;;;;;;;;;;;;;17.12;39.22;101093.03;5075894;28;1039;-43
2023/02/18 07:48:19;;;;;;;;;;;;;;;16.07;41.65;101086.38;5075954;28;1182;-47
2023/02/18 07:50:45;;;;;;;;;;;;;;;15.68;42.33;101084.69;5076219;28;1978;-45
2023/02/18 07:53:10;;;;;;;;;;;;;;;15.44;42.88;101077.84;5075909;28;1027;-44
2023/02/18 07:55:48;;;;;;;;;;;;;;;15.30;43.44;101067.28;5076088;28;1027;-44
2023/02/18 07:58:17;;;;;;;;;;;;;;;16.98;39.62;101078.97;5075455;28;1078;-45
2023/02/18 08:00:42;;;;;;;;;;;;;;;16.67;40.07;101078.81;5076030;28;1127;-43
2023/02/18 08:03:08;;;;;;;;;;;;;;;15.97;41.94;101075.34;5075524;28;1015;-46
2023/02/18 08:05:33;;;;;;;;;;;;;;;15.67;42.34;101080.28;5076007;28;1829;-43
2023/02/18 08:07:59;;;;;;;;;;;;;;;15.46;43.11;101071.03;5076225;28;1057;-43
2023/02/18 08:10:24;;;;;;;;;;;;;;;15.45;42.80;101063.88;5075686;28;1901;-44
2023/02/18 08:12:50;;;;;;;;;;;;;;;17.06;39.42;101058.41;5075551;28;1205;-44
2023/02/18 08:15:15;;;;;;;;;;;;;;;16.66;40.10;101051.63;5075855;28;1201;-43
2023/02/18 08:17:41;;;;;;;;;;;;;;;15.90;42.04;101053.63;5075768;28;1129;-43
2023/02/18 08:20:06;;;;;;;;;;;;;;;15.67;42.32;101050.13;5075796;28;1058;-43
2023/02/18 08:22:32;;;;;;;;;;;;;;;15.46;43.09;101053.75;5075573;28;1019;-44
2023/02/18 08:24:57;;;;;;;;;;;;;;;15.34;43.31;101051.19;5075581;28;979;-46
2023/02/18 08:27:22;;;;;;;;;;;;;;;16.67;40.53;101051.34;5075301;28;1053;-47
2023/02/18 08:29:48;;;;;;;;;;;;;;;17.05;39.51;101049.34;5074306;28;1909;-46
2023/02/18 08:32:13;;;;;;;;;;;;;;;16.07;41.48;101045.25;5062635;28;1147;-43
2023/02/18 08:34:39;;;;;;;;;;;;;;;15.70;42.29;101033.16;5075574;28;2387;-42
2023/02/18 08:37:04;;;;;;;;;;;;;;;15.70;42.43;101035.06;5075249;28;1064;-43
2023/02/18 08:39:34;;;;;;;;;;;;;;;17.29;39.15;101029.59;5075320;28;1098;-43
2023/02/18 08:41:59;;;;;;;;;;;;;;;16.37;40.65;101030.09;5075865;28;1146;-45
2023/02/18 08:44:25;;;;;;;;;;;;;;;15.94;41.96;101024.59;5075626;28;1031;-44
2023/02/18 08:46:51;;;;;;;;;;;;;;;15.64;42.39;101017.75;5075417;28;1103;-45
2023/02/18 08:49:16;;;;;;;;;;;;;;;15.44;42.82;101023.03;5075135;28;1968;-45
2023/02/18 08:51:42;;;;;;;;;;;;;;;15.33;43.02;101025.69;5079520;28;1098;-46
2023/02/18 08:54:07;;;;;;;;;;;;;;;16.62;40.46;101032.13;5078494;28;1402;-47
2023/02/18 08:56:33;;;;;;;;;;;;;;;16.89;39.54;101031.16;5078533;28;1317;-42
2023/02/18 08:58:58;;;;;;;;;;;;;;;16.05;41.43;101020.81;5079252;28;1035;-42
2023/02/18 09:01:24;;;;;;;;;;;;;;;15.73;42.21;101027.13;5078805;28;1075;-44
2023/02/18 09:03:49;;;;;;;;;;;;;;;15.52;42.69;101019.84;5078747;28;995;-41
2023/02/18 09:06:14;;;;;;;;;;;;;;;15.38;42.98;101025.72;5078980;28;2551;-39
2023/02/18 09:08:40;;;;;;;;;;;;;;;16.89;39.84;101020.19;5079349;28;1026;-41
2023/02/18 09:11:06;;;;;;;;;;;;;;;16.80;39.58;101017.06;5078477;28;1902;-47
2023/02/18 09:13:32;;;;;;;;;;;;;;;16.05;41.43;101018.06;5078885;28;1130;-40
2023/02/18 09:16:06;;;;;;;;;;;;;;;15.73;41.92;101013.41;5079047;28;1178;-45
2023/02/18 09:18:34;;;;;;;;;;;;;;;15.56;42.33;101007.25;5078566;28;1121;-41
2023/02/18 09:20:59;;;;;;;;;;;;;;;15.36;42.94;100992.28;5078873;28;1046;-44
2023/02/18 09:23:25;;;;;;;;;;;;;;;15.42;42.85;100995.06;5078711;28;1010;-46
2023/02/18 09:25:51;;;;;;;;;;;;;;;17.01;39.23;100984.22;5060212;28;1130;-47
2023/02/18 09:28:16;;;;;;;;;;;;;;;16.26;40.86;100979.81;5077598;28;1054;-45
2023/02/18 09:30:41;;;;;;;;;;;;;;;15.76;41.71;100968.22;5078296;28;1975;-44
2023/02/18 09:33:07;;;;;;;;;;;;;;;15.56;42.38;100966.16;5078416;28;1092;-45
2023/02/18 09:35:32;;;;;;;;;;;;;;;15.39;42.66;100966.28;5078455;28;2379;-45
2023/02/18 09:37:58;;;;;;;;;;;;;;;16.90;39.36;100966.88;5078218;28;1003;-47
2023/02/18 09:40:25;;;;;;;;;;;;;;;16.90;39.30;100950.41;5078503;28;1110;-43
2023/02/18 09:42:50;;;;;;;;;;;;;;;16.07;40.99;100955.56;5077304;28;1106;-46
2023/02/18 09:45:16;;;;;;;;;;;;;;;15.74;41.86;100946.53;5066239;28;1246;-46
2023/02/18 09:47:41;;;;;;;;;;;;;;;15.55;42.38;100940.63;5091454;28;1332;-45
2023/02/18 09:50:07;;;;;;;;;;;;;;;15.38;42.48;100951.75;5073902;28;1897;-48
2023/02/18 09:52:37;;;;;;;;;;;;;;;15.95;41.19;100954.09;5078657;28;1103;-44
2023/02/18 09:55:16;;;;;;;;;;;;;;;17.33;38.50;100947.44;5077766;28;1078;-47
2023/02/18 09:57:45;;;;;;;;;;;;;;;16.20;40.63;100948.78;5078521;28;1125;-44
2023/02/18 10:00:15;;;;;;;;;;;;;;;15.83;41.35;100948.81;5077479;28;1122;-48
2023/02/18 10:02:42;;;;;;;;;;;;;;;15.55;42.16;100953.53;5076443;28;1023;-44
2023/02/18 10:05:10;;;;;;;;;;;;;;;15.43;42.47;100944.66;5076474;28;1764;-42
2023/02/18 10:07:35;;;;;;;;;;;;;;;15.32;42.48;100943.72;5076742;28;1119;-46
2023/02/18 10:10:02;;;;;;;;;;;;;;;16.88;39.30;100955.31;5110090;28;2273;-45
2023/02/18 10:12:28;;;;;;;;;;;;;;;16.82;39.30;100948.19;5077474;28;873;-46
2023/02/18 10:14:54;;;;;;;;;;;;;;;16.01;41.04;100931.94;5078118;28;1035;-45
2023/02/18 10:17:20;;;;;;;;;;;;;;;15.73;41.69;100933.09;5076370;28;1059;-44
2023/02/18 10:19:46;;;;;;;;;;;;;;;15.53;41.98;100929.13;5077689;28;1123;-43
2023/02/18 10:22:12;;;;;;;;;;;;;;;15.36;42.46;100922.94;5077030;28;1063;-46
2023/02/18 10:24:39;;;;;;;;;;;;;;;16.01;41.06;100920.13;5075829;28;1040;-45
2023/02/18 10:27:05;;;;;;;;;;;;;;;17.27;38.19;100919.13;5076134;28;1016;-47
2023/02/18 10:29:31;;;;;;;;;;;;;;;16.22;40.26;100919.13;5077147;28;1963;-46
2023/02/18 10:32:05;;;;;;;;;;;;;;;15.77;41.59;100922.41;5077167;28;1110;-44
2023/02/18 10:34:40;;;;;;;;;;;;;;;15.55;42.02;100926.94;5077150;28;1019;-45
2023/02/18 10:37:10;;;;;;;;;;;;;;;15.42;42.08;100926.56;5076802;28;861;-45
2023/02/18 10:39:35;;;;;;;;;;;;;;;15.40;42.50;100919.44;5075599;28;1310;-47
2023/02/18 10:42:07;;;;;;;;;;;;;;;16.98;38.78;100908.66;5077051;28;1095;-45
2023/02/18 10:44:38;;;;;;;;;;;;;;;16.50;39.60;100908.81;5077168;28;1127;-46
2023/02/18 10:47:03;;;;;;;;;;;;;;;15.82;41.08;100906.03;5058626;28;1113;-47
2023/02/18 10:49:31;;;;;;;;;;;;;;;15.62;41.81;100902.03;5077612;28;1906;-46
2023/02/18 10:51:57;;;;;;;;;;;;;;;15.45;42.17;100904.13;5076775;28;1023;-44
2023/02/18 10:54:23;;;;;;;;;;;;;;;16.62;39.75;100911.34;5058345;28;1170;-46
2023/02/18 10:56:49;;;;;;;;;;;;;;;16.75;39.30;100890.75;5058956;28;1174;-46
2023/02/18 10:59:24;;;;;;;;;;;;;;;15.99;40.66;100895.72;5076709;28;1098;-45
2023/02/18 11:01:56;;;;;;;;;;;;;;;15.63;41.67;100895.47;5076842;28;1101;-43
2023/02/18 11:04:24;;;;;;;;;;;;;;;15.52;42.06;100899.25;5076390;28;1011;-42
2023/02/18 11:06:52;;;;;;;;;;;;;;;15.56;41.85;100894.88;5058776;28;2547;-48
2023/02/18 11:09:33;;;;;;;;;;;;;;;17.14;38.81;100894.94;5058754;28;1902;-48
2023/02/18 11:12:03;;;;;;;;;;;;;;;16.22;40.41;100877.16;5076335;28;1078;-47
2023/02/18 11:14:42;;;;;;;;;;;;;;;15.76;41.32;100885.16;5075565;28;1504;-44
2023/02/18 11:17:33;;;;;;;;;;;;;;;15.55;41.84;100882.25;5064878;28;1190;-46
2023/02/18 11:20:00;;;;;;;;;;;;;;;15.57;41.98;100882.81;5073310;28;1778;-44
2023/02/18 11:22:29;;;;;;;;;;;;;;;17.14;38.63;100883.94;5076092;28;1104;-45
2023/02/18 11:24:55;;;;;;;;;;;;;;;16.50;39.55;100878.63;5075434;28;1133;-44
2023/02/18 11:27:41;;;;;;;;;;;;;;;15.94;40.97;100887.47;5076532;28;1050;-44
2023/02/18 11:30:27;;;;;;;;;;;;;;;15.66;41.86;100881.25;5075819;28;1906;-47
2023/02/18 11:32:55;;;;;;;;;;;;;;;15.45;42.36;100895.91;5065560;28;1262;-44
2023/02/18 11:35:25;;;;;;;;;;;;;;;15.44;42.19;100875.06;5075720;28;1837;-43
2023/02/18 11:37:50;;;;;;;;;;;;;;;17.03;38.81;100889.44;5058357;28;1020;-42
2023/02/18 11:40:28;;;;;;;;;;;;;;;16.69;39.39;100870.72;5058198;28;1171;-44
2023/02/18 11:43:06;;;;;;;;;;;;;;;15.94;41.32;100867.44;5075919;28;1031;-46
2023/02/18 11:45:32;;;;;;;;;;;;;;;15.67;41.86;100860.13;5073909;28;1119;-44
2023/02/18 11:47:59;;;;;;;;;;;;;;;15.48;42.28;100863.31;5075840;28;1027;-48
2023/02/18 11:50:24;;;;;;;;;;;;;;;15.38;42.38;100857.75;5076190;28;1972;-44
2023/02/18 11:52:50;;;;;;;;;;;;;;;16.67;39.98;100859.16;5075982;28;1186;-43
2023/02/18 11:55:21;;;;;;;;;;;;;;;16.74;39.39;100842.44;5074974;28;1130;-45
2023/02/18 11:57:52;;;;;;;;;;;;;;;15.97;41.25;100843.03;5076316;28;1023;-43
2023/02/18 12:00:21;;;;;;;;;;;;;;;15.66;41.90;100842.88;5075183;28;1129;-45
2023/02/18 12:02:46;;;;;;;;;;;;;;;15.48;42.16;100832.34;5075700;28;1031;-43
2023/02/18 12:05:25;;;;;;;;;;;;;;;16.04;41.02;100835.38;5076077;28;2444;-46
2023/02/18 12:07:56;;;;;;;;;;;;;;;17.22;38.34;100820.19;5075299;28;1103;-46
2023/02/18 12:10:35;;;;;;;;;;;;;;;16.19;40.57;100801.69;5075347;28;1973;-46
2023/02/18 12:13:01;;;;;;;;;;;;;;;15.75;41.60;100804.78;5074042;28;1091;-43
2023/02/18 12:15:44;;;;;;;;;;;;;;;15.57;42.21;100798.69;5062484;28;1130;-47
2023/02/18 12:18:10;;;;;;;;;;;;;;;15.40;42.60;100798.88;5075712;28;1103;-43
2023/02/18 12:20:41;;;;;;;;;;;;;;;15.86;41.66;100811.19;5075717;28;1442;-45
2023/02/18 12:23:26;;;;;;;;;;;;;;;17.26;38.49;100802.06;5075778;28;1038;-45
2023/02/18 12:25:57;;;;;;;;;;;;;;;16.19;40.83;100803.63;5076638;28;1068;-48
2023/02/18 12:28:23;;;;;;;;;;;;;;;15.78;41.68;100800.69;5079939;28;1165;-42
2023/02/18 12:31:03;;;;;;;;;;;;;;;15.60;42.28;100793.75;5068762;28;1985;-39
2023/02/18 12:33:50;;;;;;;;;;;;;;;15.44;42.46;100803.81;5068023;28;1191;-44
2023/02/18 12:36:21;;;;;;;;;;;;;;;15.91;41.54;100812.03;5099147;28;1774;-43
2023/02/18 12:38:56;;;;;;;;;;;;;;;17.31;38.56;100802.06;5065811;28;1038;-44
2023/02/18 12:41:25;;;;;;;;;;;;;;;16.24;40.65;100796.25;5079144;28;1285;-46
2023/02/18 12:44:00;;;;;;;;;;;;;;;15.83;41.65;100808.97;5111849;28;1295;-42
2023/02/18 12:46:45;;;;;;;;;;;;;;;15.56;42.24;100808.00;5077663;28;1305;-45
2023/02/18 12:49:16;;;;;;;;;;;;;;;15.37;42.67;100815.81;5079056;28;1232;-43
2023/02/18 12:51:45;;;;;;;;;;;;;;;15.30;42.76;100801.53;5077905;28;1183;-44